createdAt,value
2023-04-21T00:03:55.656Z,15.80
2023-04-21T00:06:23.475Z,19.40
2023-04-21T00:08:50.945Z,19.73
2023-04-21T00:16:38.682Z,15.13
2023-04-21T00:19:07.302Z,14.80
2023-04-21T00:21:36.141Z,14.40
2023-04-21T00:24:03.164Z,11.20
2023-04-21T00:29:05.749Z,12.55
2023-04-21T00:31:34.165Z,13.68
2023-04-21T00:34:01.331Z,10.73
2023-04-21T00:36:28.607Z,12.10
2023-04-21T00:38:55.711Z,9.57
2023-04-21T00:44:35.588Z,7.75
2023-04-21T00:47:03.303Z,5.95
2023-04-21T00:49:30.642Z,7.82
2023-04-21T00:51:58.584Z,7.13
2023-04-21T00:54:26.357Z,6.60
2023-04-21T00:56:53.985Z,7.90
2023-04-21T00:59:21.453Z,7.90
2023-04-21T01:01:48.625Z,6.55
2023-04-21T01:04:15.804Z,7.60
2023-04-21T01:14:46.448Z,9.18
2023-04-21T01:17:13.498Z,5.30
2023-04-21T01:19:42.811Z,4.68
2023-04-21T01:27:55.638Z,6.40
2023-04-21T01:33:00.361Z,5.20
2023-04-21T01:35:28.256Z,5.28
2023-04-21T01:37:55.920Z,5.38
2023-04-21T01:40:23.051Z,5.10
2023-04-21T01:42:51.214Z,5.70
2023-04-21T01:45:18.260Z,6.75
2023-04-21T01:47:45.338Z,9.07
2023-04-21T01:50:12.518Z,5.93
2023-04-21T01:52:39.798Z,6.05
2023-04-21T01:55:07.500Z,6.47
2023-04-21T01:57:34.338Z,6.85
2023-04-21T02:00:01.172Z,6.38
2023-04-21T02:02:28.407Z,8.05
2023-04-21T02:04:55.511Z,8.88
2023-04-21T02:07:22.356Z,6.88
2023-04-21T02:09:49.644Z,6.22
2023-04-21T02:12:16.548Z,6.70
2023-04-21T02:14:43.688Z,8.32
2023-04-21T02:17:10.609Z,7.85
2023-04-21T02:19:38.741Z,6.18
2023-04-21T02:22:07.268Z,7.05
2023-04-21T02:24:34.695Z,5.53
2023-04-21T02:27:02.285Z,5.93
2023-04-21T02:29:29.248Z,5.47
2023-04-21T02:32:03.325Z,6.78
2023-04-21T02:34:38.027Z,6.82
2023-04-21T02:37:04.970Z,8.15
2023-04-21T02:39:31.888Z,7.95
2023-04-21T02:41:58.896Z,8.35
2023-04-21T02:44:26.363Z,8.35
2023-04-21T02:49:42.854Z,8.10
2023-04-21T02:52:10.313Z,7.32
2023-04-21T02:54:37.281Z,7.82
2023-04-21T02:57:04.276Z,7.20
2023-04-21T02:59:31.315Z,8.65
2023-04-21T03:01:58.209Z,9.82
2023-04-21T03:04:26.416Z,12.10
2023-04-21T03:06:54.251Z,12.57
2023-04-21T03:09:21.497Z,13.05
2023-04-21T03:11:51.354Z,10.48
2023-04-21T03:14:19.028Z,13.98
2023-04-21T03:16:47.494Z,11.32
2023-04-21T03:19:14.550Z,13.32
2023-04-21T03:21:41.419Z,10.95
2023-04-21T03:24:08.462Z,12.23
2023-04-21T03:26:35.528Z,11.18
2023-04-21T03:29:02.763Z,12.55
2023-04-21T03:31:29.795Z,14.77
2023-04-21T03:33:56.648Z,13.25
2023-04-21T03:36:23.595Z,13.73
2023-04-21T03:38:51.089Z,17.65
2023-04-21T03:41:18.110Z,16.95
2023-04-21T03:43:45.299Z,14.93
2023-04-21T03:46:19.612Z,11.02
2023-04-21T03:48:48.584Z,13.77
2023-04-21T03:51:15.998Z,10.10
2023-04-21T03:53:43.088Z,10.90
2023-04-21T03:56:10.432Z,9.77
2023-04-21T03:58:37.955Z,13.98
2023-04-21T04:01:07.725Z,24.00
2023-04-21T04:03:34.970Z,22.88
2023-04-21T04:06:04.091Z,15.55
2023-04-21T04:14:47.514Z,14.15
2023-04-21T04:17:29.550Z,16.30
2023-04-21T04:22:45.268Z,15.77
2023-04-21T04:25:13.020Z,19.88
2023-04-21T04:27:39.829Z,11.95
2023-04-21T04:30:07.520Z,13.10
2023-04-21T04:32:35.611Z,11.45
2023-04-21T04:35:02.664Z,11.35
2023-04-21T04:37:29.605Z,20.15
2023-04-21T04:39:56.599Z,11.60
2023-04-21T04:45:09.438Z,5.82
2023-04-21T04:50:44.867Z,6.78
2023-04-21T04:53:11.868Z,9.75
2023-04-21T04:55:38.828Z,5.75
2023-04-21T05:00:41.276Z,9.10
2023-04-21T05:03:08.434Z,7.53
2023-04-21T05:05:35.758Z,8.80
2023-04-21T05:08:02.700Z,5.65
2023-04-21T05:10:29.698Z,6.70
2023-04-21T05:12:56.637Z,6.25
2023-04-21T05:15:24.066Z,4.65
2023-04-21T05:17:51.039Z,5.78
2023-04-21T05:20:18.459Z,4.60
2023-04-21T05:22:45.390Z,5.85
2023-04-21T05:25:15.802Z,6.82
2023-04-21T05:27:43.504Z,5.13
2023-04-21T05:30:10.849Z,6.85
2023-04-21T05:32:37.976Z,5.32
2023-04-21T05:35:05.258Z,4.20
2023-04-21T05:37:32.210Z,6.00
2023-04-21T05:39:59.026Z,5.93
2023-04-21T05:42:26.383Z,5.38
2023-04-21T05:44:56.103Z,4.85
2023-04-21T05:47:23.124Z,5.63
2023-04-21T05:49:54.324Z,5.20
2023-04-21T05:52:24.021Z,6.82
2023-04-21T05:54:50.962Z,5.70
2023-04-21T05:57:18.007Z,6.13
2023-04-21T05:59:45.099Z,6.20
2023-04-21T06:02:12.887Z,4.85
2023-04-21T06:04:40.498Z,6.57
2023-04-21T06:07:09.206Z,5.43
2023-04-21T06:09:36.854Z,9.50
2023-04-21T06:12:04.283Z,9.80
2023-04-21T06:14:31.396Z,5.85
2023-04-21T06:16:58.639Z,5.63
2023-04-21T06:19:25.769Z,8.40
2023-04-21T06:21:52.796Z,6.53
2023-04-21T06:24:25.127Z,6.35
2023-04-21T06:26:53.512Z,6.28
2023-04-21T06:29:21.080Z,6.32
2023-04-21T06:31:48.202Z,5.25
2023-04-21T06:34:15.921Z,7.32
2023-04-21T06:36:43.183Z,6.55
2023-04-21T06:39:10.570Z,10.65
2023-04-21T06:41:37.411Z,5.18
2023-04-21T06:44:04.224Z,7.22
2023-04-21T06:46:31.999Z,9.00
2023-04-21T06:48:59.041Z,8.80
2023-04-21T06:51:26.057Z,5.75
2023-04-21T06:53:52.998Z,5.53
2023-04-21T06:56:21.310Z,5.25
2023-04-21T06:58:48.611Z,4.95
2023-04-21T07:01:15.744Z,8.43
2023-04-21T07:03:43.349Z,6.30
2023-04-21T07:06:11.027Z,5.65
2023-04-21T07:08:37.947Z,4.95
2023-04-21T07:11:05.130Z,5.65
2023-04-21T07:13:32.425Z,6.50
2023-04-21T07:15:59.636Z,4.63
2023-04-21T07:18:26.745Z,6.22
2023-04-21T07:20:53.581Z,6.35
2023-04-21T07:23:21.164Z,4.55
2023-04-21T07:25:48.781Z,8.52
2023-04-21T07:28:16.207Z,7.03
2023-04-21T07:30:43.415Z,6.43
2023-04-21T07:33:10.628Z,6.30
2023-04-21T07:35:37.539Z,6.15
2023-04-21T07:38:04.395Z,6.35
2023-04-21T07:40:31.905Z,7.45
2023-04-21T07:42:59.326Z,5.53
2023-04-21T07:45:26.570Z,11.50
2023-04-21T07:47:53.913Z,6.00
2023-04-21T07:50:20.902Z,4.40
2023-04-21T07:52:48.289Z,8.10
2023-04-21T07:55:15.279Z,4.35
2023-04-21T07:57:42.296Z,4.90
2023-04-21T08:00:10.414Z,6.50
2023-04-21T08:02:37.445Z,5.05
2023-04-21T08:05:04.729Z,7.63
2023-04-21T08:07:32.307Z,6.82
2023-04-21T08:10:00.284Z,4.65
2023-04-21T08:12:27.725Z,7.90
2023-04-21T08:14:57.195Z,4.25
2023-04-21T08:17:24.894Z,4.70
2023-04-21T08:19:52.257Z,5.88
2023-04-21T08:22:19.645Z,6.28
2023-04-21T08:24:46.588Z,4.82
2023-04-21T08:27:13.493Z,4.60
2023-04-21T08:29:40.570Z,8.13
2023-04-21T08:32:07.809Z,4.47
2023-04-21T08:34:35.096Z,5.28
2023-04-21T08:37:02.163Z,5.38
2023-04-21T08:39:29.587Z,6.85
2023-04-21T08:41:58.942Z,4.80
2023-04-21T08:44:26.540Z,4.22
2023-04-21T08:46:55.665Z,6.63
2023-04-21T08:49:23.652Z,4.63
2023-04-21T08:51:50.706Z,8.85
2023-04-21T08:54:18.038Z,5.07
2023-04-21T08:56:45.329Z,7.85
2023-04-21T08:59:12.577Z,4.57
2023-04-21T09:02:07.394Z,6.50
2023-04-21T09:04:34.833Z,5.93
2023-04-21T09:07:01.896Z,4.55
2023-04-21T09:09:28.705Z,4.78
2023-04-21T09:11:59.880Z,4.18
2023-04-21T09:14:33.794Z,4.97
2023-04-21T09:17:04.603Z,5.40
2023-04-21T09:19:34.801Z,3.83
2023-04-21T09:22:02.148Z,4.43
2023-04-21T09:24:29.032Z,5.53
2023-04-21T09:26:56.052Z,4.20
2023-04-21T09:29:26.816Z,4.78
2023-04-21T09:31:53.703Z,3.10
2023-04-21T09:34:25.742Z,4.40
2023-04-21T09:37:05.760Z,3.47
2023-04-21T09:39:46.254Z,4.03
2023-04-21T09:42:29.991Z,4.20
2023-04-21T09:45:10.951Z,4.30
2023-04-21T09:47:45.952Z,5.90
2023-04-21T09:50:13.600Z,3.97
2023-04-21T09:52:43.582Z,3.13
2023-04-21T09:55:14.522Z,3.20
2023-04-21T09:57:43.968Z,4.18
2023-04-21T10:00:12.589Z,4.38
2023-04-21T10:03:01.044Z,4.53
2023-04-21T10:05:29.345Z,4.03
2023-04-21T10:07:57.919Z,3.42
2023-04-21T10:10:31.952Z,2.17
2023-04-21T10:12:59.614Z,4.43
2023-04-21T10:15:39.612Z,2.35
2023-04-21T10:18:18.713Z,3.45
2023-04-21T10:20:56.565Z,2.10
2023-04-21T10:23:42.586Z,2.20
2023-04-21T10:26:11.076Z,4.05
2023-04-21T10:28:45.365Z,2.45
2023-04-21T10:31:30.635Z,2.53
2023-04-21T10:34:07.357Z,2.80
2023-04-21T10:36:56.614Z,1.85
2023-04-21T10:39:27.829Z,4.97
2023-04-21T10:41:59.005Z,4.25
2023-04-21T10:44:29.004Z,2.80
2023-04-21T10:46:59.324Z,4.50
2023-04-21T10:49:27.200Z,4.75
2023-04-21T10:52:00.702Z,4.03
2023-04-21T10:54:37.282Z,3.20
2023-04-21T10:57:08.119Z,4.40
2023-04-21T10:59:36.324Z,2.03
2023-04-21T11:02:10.152Z,2.88
2023-04-21T11:04:40.375Z,1.88
2023-04-21T11:07:17.591Z,5.93
2023-04-21T11:09:46.146Z,3.15
2023-04-21T11:12:15.492Z,2.85
2023-04-21T11:14:44.638Z,4.00
2023-04-21T11:17:14.751Z,1.67
2023-04-21T11:19:45.268Z,4.20
2023-04-21T11:22:12.281Z,1.98
2023-04-21T11:24:45.480Z,9.40
2023-04-21T11:27:14.396Z,3.38
2023-04-21T11:29:42.305Z,5.97
2023-04-21T11:32:09.816Z,6.80
2023-04-21T11:34:39.707Z,3.20
2023-04-21T11:37:14.147Z,1.27
2023-04-21T11:39:42.942Z,2.70
2023-04-21T11:42:11.784Z,3.08
2023-04-21T11:44:43.227Z,2.08
2023-04-21T11:47:24.800Z,2.30
2023-04-21T11:49:57.121Z,4.82
2023-04-21T11:52:24.034Z,5.93
2023-04-21T11:55:02.967Z,2.03
2023-04-21T11:57:32.611Z,1.85
2023-04-21T12:00:00.575Z,6.63
2023-04-21T12:02:30.761Z,4.68
2023-04-21T12:05:04.469Z,1.92
2023-04-21T12:07:33.851Z,3.15
2023-04-21T12:10:01.792Z,2.17
2023-04-21T12:12:29.995Z,2.15
2023-04-21T12:14:56.876Z,6.05
2023-04-21T12:17:24.203Z,3.92
2023-04-21T12:19:51.137Z,2.83
2023-04-21T12:22:18.834Z,1.38
2023-04-21T12:24:46.398Z,2.28
2023-04-21T12:27:14.030Z,3.45
2023-04-21T12:29:41.793Z,5.22
2023-04-21T12:32:10.012Z,4.30
2023-04-21T12:34:37.271Z,3.00
2023-04-21T12:37:04.521Z,3.47
2023-04-21T12:39:32.236Z,3.22
2023-04-21T12:41:59.700Z,2.47
2023-04-21T12:44:26.929Z,3.00
2023-04-21T12:46:54.249Z,3.10
2023-04-21T12:49:21.625Z,3.55
2023-04-21T12:51:49.501Z,2.65
2023-04-21T12:54:16.691Z,3.50
2023-04-21T12:56:44.132Z,3.35
2023-04-21T12:59:11.681Z,2.65
2023-04-21T13:01:40.514Z,4.57
2023-04-21T13:04:08.515Z,4.75
2023-04-21T13:06:36.008Z,2.97
2023-04-21T13:09:03.465Z,12.40
2023-04-21T13:11:30.310Z,5.20
2023-04-21T13:13:58.142Z,4.68
2023-04-21T13:16:25.872Z,3.10
2023-04-21T13:18:54.353Z,2.08
2023-04-21T13:21:21.640Z,4.85
2023-04-21T13:23:48.824Z,4.22
2023-04-21T13:26:16.214Z,4.85
2023-04-21T13:28:43.187Z,2.58
2023-04-21T13:31:10.608Z,4.10
2023-04-21T13:33:38.215Z,3.65
2023-04-21T13:36:05.398Z,2.13
2023-04-21T13:38:32.790Z,4.20
2023-04-21T13:40:59.701Z,3.60
2023-04-21T13:43:27.033Z,3.20
2023-04-21T13:45:54.854Z,4.32
2023-04-21T13:48:24.312Z,3.20
2023-04-21T13:50:51.951Z,2.15
2023-04-21T13:53:21.257Z,3.78
2023-04-21T13:55:48.812Z,2.50
2023-04-21T13:58:18.910Z,3.33
2023-04-21T14:00:45.885Z,4.28
2023-04-21T14:03:14.127Z,4.75
2023-04-21T14:05:41.522Z,2.08
2023-04-21T14:08:08.624Z,4.25
2023-04-21T14:10:35.543Z,2.92
2023-04-21T14:13:02.548Z,2.70
2023-04-21T14:15:29.467Z,7.50
2023-04-21T14:17:57.038Z,2.42
2023-04-21T14:20:24.098Z,3.75
2023-04-21T14:22:50.911Z,3.53
2023-04-21T14:25:18.012Z,4.45
2023-04-21T14:27:45.143Z,4.20
2023-04-21T14:30:13.154Z,4.30
2023-04-21T14:32:45.584Z,4.68
2023-04-21T14:35:13.419Z,3.60
2023-04-21T14:37:41.314Z,2.75
2023-04-21T14:40:09.210Z,2.53
2023-04-21T14:42:36.350Z,2.80
2023-04-21T14:45:03.508Z,3.05
2023-04-21T14:47:31.211Z,1.67
2023-04-21T14:49:58.212Z,2.90
2023-04-21T14:52:27.017Z,3.63
2023-04-21T14:54:54.107Z,3.08
2023-04-21T14:57:21.922Z,6.55
2023-04-21T14:59:52.757Z,2.95
2023-04-21T15:02:21.356Z,4.78
2023-04-21T15:04:49.629Z,3.33
2023-04-21T15:07:19.926Z,4.22
2023-04-21T15:09:51.030Z,4.00
2023-04-21T15:12:18.089Z,3.15
2023-04-21T15:14:45.197Z,4.10
2023-04-21T15:17:12.625Z,1.95
2023-04-21T15:19:39.540Z,2.85
2023-04-21T15:22:06.513Z,1.77
2023-04-21T15:24:33.459Z,2.65
2023-04-21T15:27:00.404Z,2.35
2023-04-21T15:29:28.967Z,2.75
2023-04-21T15:31:56.313Z,2.83
2023-04-21T15:34:23.195Z,2.15
2023-04-21T15:36:50.540Z,2.92
2023-04-21T15:39:17.442Z,3.90
2023-04-21T15:41:44.304Z,2.58
2023-04-21T15:44:11.522Z,4.43
2023-04-21T15:46:38.964Z,3.42
2023-04-21T15:49:06.365Z,3.40
2023-04-21T15:51:35.014Z,3.35
2023-04-21T15:54:01.985Z,5.53
2023-04-21T15:56:29.379Z,3.38
2023-04-21T15:58:57.200Z,4.80
2023-04-21T16:01:24.520Z,8.80
2023-04-21T16:03:52.459Z,3.55
2023-04-21T16:06:21.400Z,3.03
2023-04-21T16:08:48.857Z,10.30
2023-04-21T16:11:16.151Z,7.45
2023-04-21T16:13:43.230Z,3.60
2023-04-21T16:16:23.415Z,3.80
2023-04-21T16:19:00.030Z,5.32
2023-04-21T16:21:27.887Z,7.28
2023-04-21T16:23:55.421Z,3.63
2023-04-21T16:26:22.918Z,7.80
2023-04-21T16:28:54.225Z,8.65
2023-04-21T16:31:21.478Z,8.25
2023-04-21T16:33:49.651Z,4.70
2023-04-21T16:36:17.079Z,4.47
2023-04-21T16:38:44.124Z,3.58
2023-04-21T16:41:12.725Z,3.15
2023-04-21T16:43:40.013Z,4.15
2023-04-21T16:46:06.994Z,2.47
2023-04-21T16:48:34.058Z,4.65
2023-04-21T16:51:01.136Z,4.55
2023-04-21T16:53:28.590Z,3.58
2023-04-21T16:55:55.602Z,3.38
2023-04-21T16:58:24.537Z,5.47
2023-04-21T17:00:51.598Z,3.30
2023-04-21T17:03:18.981Z,7.28
2023-04-21T17:05:46.164Z,3.65
2023-04-21T17:08:13.174Z,5.00
2023-04-21T17:10:40.027Z,5.63
2023-04-21T17:13:07.561Z,6.47
2023-04-21T17:15:35.831Z,5.40
2023-04-21T17:18:03.002Z,3.47
2023-04-21T17:20:30.734Z,4.47
2023-04-21T17:22:57.697Z,2.78
2023-04-21T17:25:25.803Z,10.18
2023-04-21T17:27:53.275Z,5.78
2023-04-21T17:30:21.594Z,6.75
2023-04-21T17:32:48.475Z,6.97
2023-04-21T17:35:15.560Z,7.03
2023-04-21T17:37:43.845Z,7.70
2023-04-21T17:40:11.220Z,6.05
2023-04-21T17:42:38.290Z,5.05
2023-04-21T17:45:07.626Z,7.97
2023-04-21T17:47:35.085Z,5.80
2023-04-21T17:50:02.291Z,4.90
2023-04-21T17:52:29.262Z,5.07
2023-04-21T17:54:56.656Z,13.23
2023-04-21T17:57:23.961Z,6.38
2023-04-21T17:59:51.488Z,6.50
2023-04-21T18:02:19.026Z,9.25
2023-04-21T18:04:46.209Z,7.18
2023-04-21T18:07:13.970Z,10.20
2023-04-21T18:09:41.504Z,9.23
2023-04-21T18:12:08.900Z,7.38
2023-04-21T18:14:36.657Z,30.33
2023-04-21T18:17:03.692Z,22.42
2023-04-21T18:19:30.699Z,25.45
2023-04-21T18:21:58.035Z,23.50
2023-04-21T18:24:24.975Z,20.77
2023-04-21T18:26:52.355Z,14.52
2023-04-21T18:29:19.674Z,10.90
2023-04-21T18:31:46.677Z,11.35
2023-04-21T18:34:16.984Z,9.77
2023-04-21T18:36:47.096Z,12.95
2023-04-21T18:39:19.961Z,11.48
2023-04-21T18:41:48.445Z,16.42
2023-04-21T18:44:22.157Z,12.95
2023-04-21T18:46:52.200Z,14.65
2023-04-21T18:49:27.750Z,12.27
2023-04-21T18:51:54.759Z,12.77
2023-04-21T18:54:22.313Z,20.92
2023-04-21T18:56:49.920Z,21.95
2023-04-21T18:59:22.235Z,15.88
2023-04-21T19:01:49.490Z,20.25
2023-04-21T19:04:20.569Z,19.50
2023-04-21T19:06:56.773Z,20.30
2023-04-21T19:09:23.715Z,20.83
2023-04-21T19:11:51.861Z,18.85
2023-04-21T19:14:20.024Z,15.27
2023-04-21T19:16:48.866Z,14.70
2023-04-21T19:19:15.872Z,14.43
2023-04-21T19:21:43.057Z,14.02
2023-04-21T19:24:09.975Z,14.82
2023-04-21T19:26:37.076Z,18.10
2023-04-21T19:29:05.083Z,18.33
2023-04-21T19:31:32.007Z,16.67
2023-04-21T19:34:00.226Z,15.18
2023-04-21T19:36:27.654Z,16.73
2023-04-21T19:38:55.063Z,15.55
2023-04-21T19:41:21.951Z,18.38
2023-04-21T19:43:49.371Z,21.70
2023-04-21T19:46:16.595Z,13.13
2023-04-21T19:48:43.563Z,17.13
2023-04-21T19:51:10.862Z,16.27
2023-04-21T19:53:37.897Z,15.07
2023-04-21T19:56:05.053Z,18.70
2023-04-21T19:58:40.164Z,22.23
2023-04-21T20:01:07.967Z,18.77
2023-04-21T20:03:35.554Z,16.70
2023-04-21T20:06:04.892Z,18.88
2023-04-21T20:08:32.637Z,16.60
2023-04-21T20:11:00.899Z,11.48
2023-04-21T20:13:28.188Z,12.88
2023-04-21T20:15:58.403Z,25.40
2023-04-21T20:18:25.334Z,23.85
2023-04-21T20:20:52.242Z,23.52
2023-04-21T20:23:19.824Z,18.70
2023-04-21T20:25:47.026Z,16.88
2023-04-21T20:28:14.310Z,15.43
2023-04-21T20:30:41.155Z,17.75
2023-04-21T20:33:08.204Z,12.80
2023-04-21T20:35:39.363Z,14.27
2023-04-21T20:38:07.965Z,15.23
2023-04-21T20:40:36.155Z,14.13
2023-04-21T20:43:06.384Z,15.10
2023-04-21T20:45:34.488Z,14.60
2023-04-21T20:48:01.996Z,14.95
2023-04-21T20:50:29.303Z,11.90
2023-04-21T20:52:56.810Z,12.27
2023-04-21T20:55:23.833Z,14.98
2023-04-21T20:57:51.167Z,10.88
2023-04-21T21:00:18.206Z,15.00
2023-04-21T21:02:45.564Z,18.02
2023-04-21T21:05:12.623Z,16.63
2023-04-21T21:07:39.960Z,14.15
2023-04-21T21:10:08.213Z,11.90
2023-04-21T21:12:35.160Z,14.70
2023-04-21T21:15:02.047Z,15.63
2023-04-21T21:17:29.081Z,15.95
2023-04-21T21:19:56.202Z,16.98
2023-04-21T21:22:23.063Z,15.00
2023-04-21T21:24:50.582Z,19.52
2023-04-21T21:27:17.673Z,16.98
2023-04-21T21:29:44.626Z,15.32
2023-04-21T21:32:11.568Z,19.60
2023-04-21T21:34:38.706Z,17.42
2023-04-21T21:37:05.645Z,16.63
2023-04-21T21:39:32.658Z,17.70
2023-04-21T21:41:59.550Z,25.40
2023-04-21T21:44:26.503Z,17.15
2023-04-21T21:46:53.899Z,15.07
2023-04-21T21:49:21.177Z,16.77
2023-04-21T21:51:48.205Z,14.32
2023-04-21T21:54:18.232Z,18.35
2023-04-21T21:56:45.274Z,20.67
2023-04-21T21:59:12.735Z,20.35
2023-04-21T22:01:39.702Z,16.63
2023-04-21T22:04:07.539Z,14.82
2023-04-21T22:06:35.120Z,14.48
2023-04-21T22:09:02.071Z,14.27
2023-04-21T22:11:29.013Z,14.00
2023-04-21T22:13:57.706Z,13.60
2023-04-21T22:16:28.616Z,15.85
2023-04-21T22:18:57.152Z,14.90
2023-04-21T22:21:27.511Z,24.08
2023-04-21T22:23:54.860Z,14.55
2023-04-21T22:26:21.700Z,20.55
2023-04-21T22:28:52.096Z,14.38
2023-04-21T22:31:19.424Z,14.60
2023-04-21T22:33:46.403Z,15.55
2023-04-21T22:36:13.348Z,13.52
2023-04-21T22:38:43.205Z,13.15
2023-04-21T22:41:10.147Z,7.97
2023-04-21T22:43:37.025Z,8.27
2023-04-21T22:46:04.085Z,9.35
2023-04-21T22:48:32.826Z,6.72
2023-04-21T22:51:00.346Z,8.60
2023-04-21T22:53:27.230Z,10.43
2023-04-21T22:55:56.045Z,12.60
2023-04-21T22:58:26.335Z,9.27
2023-04-21T23:00:53.741Z,7.85
2023-04-21T23:03:23.369Z,9.57
2023-04-21T23:05:50.587Z,10.80
2023-04-21T23:08:17.515Z,7.68
2023-04-21T23:10:44.859Z,8.60
2023-04-21T23:13:11.695Z,9.10
2023-04-21T23:15:38.590Z,9.68
2023-04-21T23:18:06.318Z,8.25
2023-04-21T23:20:33.377Z,7.05
2023-04-21T23:23:00.656Z,9.48
2023-04-21T23:25:27.629Z,10.07
2023-04-21T23:27:54.607Z,6.93
2023-04-21T23:30:21.461Z,9.05
2023-04-21T23:32:48.734Z,10.88
2023-04-21T23:35:15.841Z,10.15
2023-04-21T23:37:43.120Z,6.78
2023-04-21T23:40:12.545Z,5.70
2023-04-21T23:42:39.524Z,5.60
2023-04-21T23:45:07.185Z,7.10
2023-04-21T23:47:34.266Z,9.00
2023-04-21T23:50:01.469Z,6.60
2023-04-21T23:52:28.415Z,7.85
2023-04-21T23:54:55.394Z,7.22
2023-04-21T23:57:22.422Z,7.65
2023-04-21T23:59:49.308Z,6.25
